Time;durP1;ratioP1;P1;durP2;ratioP2;P2;SDS_P1;SDS_P2;PMS_P1;PMS_P2;Temp;Humidity;BMP_temperature;BMP_pressure;BME280_temperature;BME280_humidity;BME280_pressure;Samples;Min_cycle;Max_cycle;Signal;HPM_P1;HPM_P2
2022/08/05 00:01:27;;;;;;;15.07;6.32;;;;;;;18.15;100.00;100744.75;4921526;29;20793;-80
2022/08/05 00:03:55;;;;;;;15.57;6.70;;;;;;;18.19;100.00;100741.00;4916513;29;20423;-82
2022/08/05 00:06:29;;;;;;;16.38;6.90;;;;;;;18.06;100.00;100706.19;4937594;29;20452;-81
2022/08/05 00:08:59;;;;;;;16.58;7.38;;;;;;;18.19;100.00;100729.97;4925818;29;20424;-81
2022/08/05 00:11:28;;;;;;;15.70;7.03;;;;;;;18.03;100.00;100712.38;4900858;29;20440;-81
2022/08/05 00:13:57;;;;;;;17.63;7.68;;;;;;;18.12;100.00;100729.69;4925855;29;20423;-81
2022/08/05 00:16:30;;;;;;;18.52;7.20;;;;;;;18.14;100.00;100729.34;4921744;29;20430;-81
2022/08/05 00:19:04;;;;;;;18.40;7.45;;;;;;;18.00;100.00;100699.28;4908444;29;20435;-81
2022/08/05 00:21:37;;;;;;;16.75;7.50;;;;;;;18.17;100.00;100720.41;4909224;29;20424;-81
2022/08/05 00:24:12;;;;;;;18.58;7.88;;;;;;;18.01;100.00;100714.66;4918980;29;20430;-83
2022/08/05 00:26:40;;;;;;;19.35;8.23;;;;;;;18.04;100.00;100732.47;4931006;29;20418;-82
2022/08/05 00:29:08;;;;;;;19.98;8.43;;;;;;;18.02;100.00;100733.59;4916965;29;20435;-82
2022/08/05 00:31:41;;;;;;;19.58;8.93;;;;;;;17.98;100.00;100731.81;4914056;29;20435;-80
2022/08/05 00:34:10;;;;;;;18.30;9.05;;;;;;;17.89;100.00;100720.81;4913157;29;20434;-82
2022/08/05 00:36:38;;;;;;;25.40;9.50;;;;;;;17.94;100.00;100737.19;4923911;29;20433;-82
2022/08/05 00:39:08;;;;;;;27.35;10.20;;;;;;;17.91;100.00;100740.63;4910008;29;20431;-80
2022/08/05 00:41:38;;;;;;;24.65;9.70;;;;;;;17.96;100.00;100745.91;4934671;29;20431;-80
2022/08/05 00:44:06;;;;;;;25.30;9.95;;;;;;;17.85;100.00;100731.66;4920121;29;20758;-81
2022/08/05 00:46:37;;;;;;;24.42;10.05;;;;;;;17.70;100.00;100721.19;4913193;29;20456;-81
2022/08/05 00:49:06;;;;;;;25.40;11.03;;;;;;;17.87;100.00;100753.38;4919454;29;20427;-81
2022/08/05 00:51:35;;;;;;;24.17;9.75;;;;;;;17.76;100.00;100730.91;4904273;29;21125;-81
2022/08/05 00:54:04;;;;;;;23.83;10.15;;;;;;;17.80;100.00;100742.88;4918440;29;20424;-82
2022/08/05 00:56:33;;;;;;;24.63;10.25;;;;;;;17.81;100.00;100741.72;4904544;29;20423;-82
2022/08/05 00:59:02;;;;;;;20.52;10.68;;;;;;;17.85;100.00;100756.44;4912565;29;20429;-82
2022/08/05 01:01:30;;;;;;;21.73;10.50;;;;;;;17.69;100.00;100736.09;4912972;29;20427;-81
2022/08/05 01:03:59;;;;;;;22.33;10.20;;;;;;;17.78;100.00;100750.63;4923984;29;20424;-82
2022/08/05 01:06:32;;;;;;;22.95;9.98;;;;;;;17.80;100.00;100767.66;4916402;29;20440;-82
2022/08/05 01:09:05;;;;;;;24.48;10.63;;;;;;;17.88;100.00;100768.75;4917948;29;20428;-81
2022/08/05 01:11:40;;;;;;;22.73;9.48;;;;;;;17.83;100.00;100771.69;4921331;29;20435;-80
2022/08/05 01:14:24;;;;;;;21.92;9.80;;;;;;;17.91;100.00;100776.41;4929388;29;20442;-81
2022/08/05 01:16:59;;;;;;;24.13;9.90;;;;;;;17.88;100.00;100778.97;4915273;29;20788;-81
2022/08/05 01:19:34;;;;;;;22.88;9.25;;;;;;;17.85;100.00;100788.69;4913502;29;20419;-82
2022/08/05 01:22:21;;;;;;;21.20;9.57;;;;;;;17.64;100.00;100772.84;4919223;29;20457;-81
2022/08/05 01:25:32;;;;;;;21.88;9.10;;;;;;;17.78;100.00;100802.13;4929168;29;20424;-82
2022/08/05 01:28:20;;;;;;;19.30;9.25;;;;;;;17.81;100.00;100798.72;4919310;29;20431;-81
2022/08/05 01:31:04;;;;;;;20.48;8.50;;;;;;;17.73;100.00;100783.84;4933020;29;20431;-81
2022/08/05 01:33:35;;;;;;;18.58;8.00;;;;;;;17.66;100.00;100787.09;4918908;29;20536;-81
2022/08/05 01:36:15;;;;;;;21.17;8.55;;;;;;;17.58;100.00;100793.41;4922789;29;20428;-83
2022/08/05 01:38:50;;;;;;;16.80;7.72;;;;;;;17.35;100.00;100759.75;4931203;29;20421;-81
2022/08/05 01:41:24;;;;;;;15.90;6.87;;;;;;;17.47;100.00;100781.91;4929588;29;20427;-80
2022/08/05 01:44:00;;;;;;;16.00;7.23;;;;;;;17.42;100.00;100789.53;4934878;29;20431;-81
2022/08/05 01:46:35;;;;;;;19.25;7.70;;;;;;;17.26;100.00;100794.69;4916794;29;20764;-81
2022/08/05 01:49:11;;;;;;;15.25;7.13;;;;;;;17.28;100.00;100795.19;4944874;29;20423;-82
2022/08/05 01:51:41;;;;;;;12.85;6.50;;;;;;;17.25;100.00;100788.38;4930541;29;20432;-81
2022/08/05 01:54:10;;;;;;;14.43;6.45;;;;;;;17.33;100.00;100803.25;4910461;29;20465;-82
2022/08/05 01:56:44;;;;;;;13.40;6.53;;;;;;;17.39;100.00;100795.69;4927922;29;20788;-81
2022/08/05 01:59:22;;;;;;;13.77;6.20;;;;;;;17.33;100.00;100787.59;4925108;29;20432;-82
2022/08/05 02:01:57;;;;;;;12.70;5.82;;;;;;;17.23;100.00;100771.38;4913650;29;20428;-81
2022/08/05 02:04:27;;;;;;;13.43;5.70;;;;;;;17.02;100.00;100735.47;4916121;29;20429;-82
2022/08/05 02:06:57;;;;;;;12.52;5.88;;;;;;;17.04;100.00;100762.63;4928401;29;21239;-82
2022/08/05 02:09:31;;;;;;;14.00;5.55;;;;;;;17.09;100.00;100768.00;4917359;29;20427;-82
2022/08/05 02:12:08;;;;;;;14.40;5.50;;;;;;;17.10;100.00;100756.66;4918231;29;20423;-82
2022/08/05 02:14:48;;;;;;;13.25;5.07;;;;;;;16.99;100.00;100731.41;4918493;29;20435;-82
2022/08/05 02:17:29;;;;;;;12.30;5.30;;;;;;;16.79;100.00;100705.34;4917188;29;20432;-81
2022/08/05 02:20:02;;;;;;;11.70;5.22;;;;;;;16.77;100.00;100704.06;4929800;29;20415;-82
2022/08/05 02:22:41;;;;;;;11.23;5.00;;;;;;;16.85;100.00;100725.25;4935308;29;20431;-82
2022/08/05 02:25:16;;;;;;;10.68;5.03;;;;;;;16.83;100.00;100722.00;4923130;29;20450;-83
2022/08/05 02:27:52;;;;;;;11.15;5.35;;;;;;;16.75;100.00;100723.63;4919446;29;20434;-82
2022/08/05 02:30:24;;;;;;;10.93;4.60;;;;;;;16.84;100.00;100698.88;4935277;29;20412;-81
2022/08/05 02:33:00;;;;;;;10.23;4.80;;;;;;;16.89;100.00;100684.19;4931419;29;20651;-81
2022/08/05 02:35:35;;;;;;;10.93;5.03;;;;;;;16.85;100.00;100673.03;4914993;29;20431;-82
2022/08/05 02:38:10;;;;;;;10.45;4.78;;;;;;;16.81;100.00;100672.06;4917025;29;20424;-82
2022/08/05 02:40:44;;;;;;;9.82;5.22;;;;;;;16.91;100.00;100676.44;4934949;29;21033;-82
2022/08/05 02:43:19;;;;;;;12.88;5.32;;;;;;;16.87;100.00;100680.94;4934981;29;20435;-81
2022/08/05 02:45:50;;;;;;;9.55;5.10;;;;;;;16.89;100.00;100657.53;4917990;29;20793;-81
2022/08/05 02:48:21;;;;;;;10.57;5.17;;;;;;;17.07;100.00;100680.34;4933032;29;20422;-81
2022/08/05 02:50:54;;;;;;;14.35;5.57;;;;;;;17.04;100.00;100669.16;4906015;29;20425;-83
2022/08/05 02:53:28;;;;;;;12.73;5.78;;;;;;;16.82;100.00;100630.50;4909215;29;20430;-81
2022/08/05 02:55:57;;;;;;;9.70;5.15;;;;;;;16.94;100.00;100662.84;4923624;29;20427;-81
2022/08/05 02:58:26;;;;;;;11.55;5.70;;;;;;;17.00;100.00;100671.78;4925456;29;20424;-82
2022/08/05 03:00:58;;;;;;;13.35;5.40;;;;;;;17.03;100.00;100692.28;4928415;29;20434;-81
2022/08/05 03:03:29;;;;;;;14.25;5.85;;;;;;;17.09;100.00;100713.00;4916378;29;20427;-81
2022/08/05 03:05:58;;;;;;;11.57;5.30;;;;;;;17.15;100.00;100756.53;4934500;29;20419;-81
2022/08/05 03:08:32;;;;;;;12.02;4.95;;;;;;;17.17;100.00;100790.00;4917302;29;20435;-81
2022/08/05 03:11:17;;;;;;;12.57;4.93;;;;;;;17.07;100.00;100781.22;4921865;29;20491;-84
2022/08/05 03:13:46;;;;;;;11.55;5.53;;;;;;;17.02;100.00;100768.47;4927147;29;20436;-82
2022/08/05 03:16:17;;;;;;;12.90;5.35;;;;;;;16.92;100.00;100753.09;4932344;29;20416;-82
2022/08/05 03:18:45;;;;;;;12.32;5.20;;;;;;;16.93;100.00;100751.13;4927850;29;20431;-83
2022/08/05 03:21:18;;;;;;;11.90;4.82;;;;;;;16.87;100.00;100733.97;4928032;29;20437;-83
2022/08/05 03:23:47;;;;;;;13.20;4.90;;;;;;;16.88;100.00;100741.09;4933485;29;20435;-84
2022/08/05 03:26:20;;;;;;;11.18;4.72;;;;;;;16.75;100.00;100734.59;4921133;29;20768;-85
2022/08/05 03:28:53;;;;;;;10.65;4.75;;;;;;;16.56;100.00;100725.81;4915865;29;20438;-84
2022/08/05 03:31:29;;;;;;;10.70;4.80;;;;;;;16.56;100.00;100706.56;4926671;29;20416;-84
2022/08/05 03:33:58;;;;;;;12.77;4.93;;;;;;;16.42;100.00;100691.06;4933146;29;20455;-84
2022/08/05 03:36:31;;;;;;;11.90;5.25;;;;;;;16.57;100.00;100683.47;4932300;29;20443;-85
2022/08/05 03:39:06;;;;;;;14.20;5.18;;;;;;;16.59;100.00;100673.78;4922890;29;20438;-85
2022/08/05 03:41:39;;;;;;;12.55;5.70;;;;;;;16.61;100.00;100666.06;4919930;29;20440;-85
2022/08/05 03:44:08;;;;;;;14.00;5.30;;;;;;;16.64;100.00;100662.66;4930340;29;20439;-85
2022/08/05 03:46:42;;;;;;;12.48;5.55;;;;;;;16.55;100.00;100658.28;4933494;29;20896;-85
2022/08/05 03:49:15;;;;;;;12.98;6.10;;;;;;;16.53;100.00;100666.03;4932874;29;20435;-85
2022/08/05 03:51:55;;;;;;;14.20;5.65;;;;;;;16.51;100.00;100673.78;4919740;29;20419;-85
2022/08/05 03:54:35;;;;;;;12.88;5.20;;;;;;;16.48;100.00;100676.03;4930927;29;20447;-85
2022/08/05 03:57:11;;;;;;;10.70;5.53;;;;;;;16.55;100.00;100692.03;4918540;29;20420;-84
2022/08/05 03:59:49;;;;;;;12.90;5.43;;;;;;;16.47;100.00;100687.34;4915353;29;20438;-83
2022/08/05 04:02:28;;;;;;;13.23;5.25;;;;;;;16.38;100.00;100672.75;4914373;29;20451;-83
2022/08/05 04:05:03;;;;;;;11.95;5.35;;;;;;;16.44;100.00;100675.06;4914877;29;20427;-84
2022/08/05 04:07:33;;;;;;;10.13;5.22;;;;;;;16.45;100.00;100684.13;4936026;29;20419;-83
2022/08/05 04:10:06;;;;;;;12.00;5.20;;;;;;;16.32;100.00;100669.38;4928515;29;20438;-84
2022/08/05 04:12:40;;;;;;;9.52;4.72;;;;;;;16.38;100.00;100679.09;4932994;29;20439;-84
2022/08/05 04:15:07;;;;;;;11.10;4.65;;;;;;;16.40;100.00;100656.78;4926907;29;20438;-83
2022/08/05 04:17:42;;;;;;;11.95;5.20;;;;;;;16.39;100.00;100683.47;4935505;29;20435;-84
2022/08/05 04:20:19;;;;;;;10.50;5.18;;;;;;;16.44;100.00;100683.28;4919722;29;20436;-84
2022/08/05 04:22:52;;;;;;;11.52;5.20;;;;;;;16.42;100.00;100688.31;4921107;29;20439;-83
2022/08/05 04:25:26;;;;;;;11.60;5.00;;;;;;;16.42;100.00;100695.72;4919927;29;20437;-84
2022/08/05 04:27:54;;;;;;;11.13;5.05;;;;;;;16.49;100.00;100710.63;4920245;29;20494;-84
2022/08/05 04:30:27;;;;;;;11.20;5.00;;;;;;;16.60;100.00;100710.31;4935507;29;20441;-84
2022/08/05 04:33:02;;;;;;;10.55;4.95;;;;;;;16.53;100.00;100709.97;4934165;29;20933;-84
2022/08/05 04:35:35;;;;;;;11.50;5.00;;;;;;;16.63;100.00;100718.72;4931156;29;20792;-84
2022/08/05 04:38:09;;;;;;;7.90;4.45;;;;;;;16.58;100.00;100710.63;4935001;29;20850;-84
2022/08/05 04:40:42;;;;;;;11.35;4.95;;;;;;;16.64;100.00;100722.28;4919379;29;20419;-84
2022/08/05 04:43:16;;;;;;;10.17;4.60;;;;;;;16.60;100.00;100730.38;4935476;29;20438;-83
2022/08/05 04:45:49;;;;;;;10.43;4.82;;;;;;;16.54;100.00;100748.09;4935635;29;20420;-83
2022/08/05 04:48:23;;;;;;;9.63;4.50;;;;;;;16.60;100.00;100755.09;4931217;29;20440;-83
2022/08/05 04:50:51;;;;;;;10.77;4.80;;;;;;;16.54;100.00;100761.84;4930946;29;20868;-86
2022/08/05 04:53:20;;;;;;;9.35;4.43;;;;;;;16.56;100.00;100761.53;4935349;29;20427;-83
2022/08/05 04:55:53;;;;;;;7.95;4.20;;;;;;;16.49;100.00;100762.81;4923028;29;20447;-83
2022/08/05 04:58:26;;;;;;;9.55;4.20;;;;;;;16.46;100.00;100759.88;4922779;29;20427;-83
2022/08/05 05:00:59;;;;;;;8.93;3.95;;;;;;;16.44;100.00;100764.91;4934704;29;20450;-83
2022/08/05 05:03:34;;;;;;;10.70;4.15;;;;;;;16.34;100.00;100763.25;4933461;29;20443;-83
2022/08/05 05:06:09;;;;;;;8.80;4.05;;;;;;;16.38;100.00;100760.66;4930631;29;20436;-82
2022/08/05 05:08:43;;;;;;;9.05;4.15;;;;;;;16.35;100.00;100770.38;4923283;29;20439;-83
2022/08/05 05:11:16;;;;;;;10.10;3.67;;;;;;;16.37;100.00;100779.09;4922705;29;20446;-83
2022/08/05 05:13:49;;;;;;;6.13;3.72;;;;;;;16.36;100.00;100787.63;4919499;29;20424;-82
2022/08/05 05:16:22;;;;;;;8.60;3.60;;;;;;;16.30;100.00;100784.22;4934249;29;20427;-83
2022/08/05 05:18:51;;;;;;;8.35;3.40;;;;;;;16.35;100.00;100795.06;4936720;29;20428;-83
2022/08/05 05:21:20;;;;;;;8.68;3.80;;;;;;;16.41;100.00;100793.00;4934768;29;21015;-82
2022/08/05 05:23:48;;;;;;;7.07;3.50;;;;;;;16.26;100.00;100800.50;4917263;29;20438;-83
2022/08/05 05:26:16;;;;;;;8.82;3.75;;;;;;;16.42;100.00;100806.41;4917991;29;20427;-83
2022/08/05 05:28:49;;;;;;;8.45;3.63;;;;;;;16.52;100.00;100823.72;4917556;29;20435;-82
2022/08/05 05:31:23;;;;;;;7.88;3.30;;;;;;;16.53;100.00;100830.84;4914410;29;20441;-82
2022/08/05 05:33:52;;;;;;;8.63;3.60;;;;;;;16.46;100.00;100834.88;4921436;29;20893;-82
2022/08/05 05:36:26;;;;;;;7.10;3.27;;;;;;;16.35;100.00;100838.19;4936865;29;20471;-83
2022/08/05 05:38:59;;;;;;;8.70;3.50;;;;;;;16.29;100.00;100843.81;4924933;29;20419;-82
2022/08/05 05:41:32;;;;;;;9.20;3.58;;;;;;;16.32;100.00;100848.69;4932996;29;20443;-83
2022/08/05 05:44:00;;;;;;;7.90;3.28;;;;;;;16.21;100.00;100849.25;4934462;29;20416;-82
2022/08/05 05:46:33;;;;;;;8.77;3.30;;;;;;;16.31;100.00;100849.81;4924474;29;20918;-83
2022/08/05 05:49:08;;;;;;;7.07;3.08;;;;;;;16.26;100.00;100843.66;4930439;29;20444;-80
2022/08/05 05:51:41;;;;;;;7.13;3.20;;;;;;;16.12;100.00;100840.97;4934959;29;20436;-80
2022/08/05 05:54:14;;;;;;;9.43;3.20;;;;;;;16.20;100.00;100822.91;4927356;29;20435;-81
2022/08/05 05:56:47;;;;;;;6.47;3.38;;;;;;;16.17;100.00;100831.78;4928771;29;20928;-81
2022/08/05 05:59:16;;;;;;;10.13;3.80;;;;;;;16.23;100.00;100830.56;4934784;29;20446;-80
2022/08/05 06:01:44;;;;;;;8.05;3.80;;;;;;;16.24;100.00;100848.63;4929340;29;20435;-81
2022/08/05 06:04:19;;;;;;;9.02;3.85;;;;;;;16.22;100.00;100837.16;4925178;29;20431;-81
2022/08/05 06:06:52;;;;;;;11.43;4.57;;;;;;;16.25;100.00;100834.59;4929206;29;20781;-83
2022/08/05 06:09:25;;;;;;;7.72;3.10;;;;;;;16.22;100.00;100834.41;4904558;29;20449;-82
2022/08/05 06:11:58;;;;;;;7.77;3.03;;;;;;;16.19;100.00;100829.56;4909526;29;20439;-80
2022/08/05 06:14:26;;;;;;;7.05;3.25;;;;;;;16.03;100.00;100838.16;4897849;29;20452;-81
2022/08/05 06:17:00;;;;;;;6.30;3.10;;;;;;;15.91;100.00;100835.16;4909598;29;20432;-81
2022/08/05 06:19:35;;;;;;;8.43;3.47;;;;;;;15.98;100.00;100830.06;4908683;29;20447;-82
2022/08/05 06:22:08;;;;;;;9.20;3.33;;;;;;;15.96;100.00;100838.63;4916496;29;20979;-82
2022/08/05 06:24:42;;;;;;;8.00;3.25;;;;;;;15.93;100.00;100828.25;4912013;29;20450;-80
2022/08/05 06:27:15;;;;;;;7.45;3.10;;;;;;;15.84;100.00;100829.31;4911616;29;20451;-81
2022/08/05 06:29:48;;;;;;;7.18;3.15;;;;;;;15.76;100.00;100817.94;4909459;29;20435;-83
2022/08/05 06:32:22;;;;;;;6.82;3.25;;;;;;;15.75;100.00;100815.50;4898962;29;20443;-81
2022/08/05 06:34:58;;;;;;;6.10;3.13;;;;;;;15.78;100.00;100801.16;4898439;29;20444;-81
2022/08/05 06:37:31;;;;;;;7.43;3.42;;;;;;;15.81;100.00;100798.66;4921995;29;20436;-84
2022/08/05 06:40:05;;;;;;;9.35;3.22;;;;;;;15.76;100.00;100808.91;4893171;29;20979;-83
2022/08/05 06:42:39;;;;;;;7.63;3.35;;;;;;;15.77;100.00;100796.78;4892329;29;22415;-84
2022/08/05 06:45:08;;;;;;;7.15;3.20;;;;;;;15.76;100.00;100790.50;4896783;29;21737;-83
2022/08/05 06:47:41;;;;;;;7.57;3.40;;;;;;;15.75;100.00;100794.34;4896668;29;20463;-83
2022/08/05 06:50:16;;;;;;;5.32;3.20;;;;;;;15.77;100.00;100797.63;4911633;29;21880;-83
2022/08/05 06:52:49;;;;;;;8.63;3.70;;;;;;;15.91;100.00;100805.81;4911923;29;20450;-83
2022/08/05 06:55:23;;;;;;;10.02;3.90;;;;;;;15.99;100.00;100823.44;4893283;29;20852;-84
2022/08/05 06:57:56;;;;;;;7.63;3.50;;;;;;;15.93;100.00;100824.72;4902646;29;20435;-83
2022/08/05 07:00:30;;;;;;;5.85;3.10;;;;;;;16.03;100.00;100809.91;4912077;29;20439;-82
2022/08/05 07:03:03;;;;;;;9.10;3.60;;;;;;;15.95;100.00;100809.56;4913495;29;20443;-82
2022/08/05 07:05:37;;;;;;;7.73;3.20;;;;;;;16.10;100.00;100807.53;4911690;29;20447;-82
2022/08/05 07:08:11;;;;;;;6.93;3.47;;;;;;;16.27;100.00;100804.09;4918265;29;20444;-84
2022/08/05 07:10:44;;;;;;;10.68;3.80;;;;;;;16.48;100.00;100829.06;4894211;29;20448;-83
2022/08/05 07:18:55;;;;;;;8.35;3.78;;;;;;;16.47;100.00;100839.25;4897384;29;20438;-82
2022/08/05 07:21:30;;;;;;;9.05;4.03;;;;;;;16.57;100.00;100818.09;4918051;29;20447;-83
2022/08/05 07:23:58;;;;;;;9.20;3.85;;;;;;;16.53;100.00;100798.72;4892437;29;20439;-84
2022/08/05 07:26:27;;;;;;;6.67;3.57;;;;;;;16.61;100.00;100816.34;4897966;29;20442;-82
2022/08/05 07:29:00;;;;;;;9.50;3.75;;;;;;;16.62;100.00;100818.75;4916185;29;20446;-85
2022/08/05 07:31:28;;;;;;;9.57;3.92;;;;;;;16.64;100.00;100837.69;4900708;29;20442;-86
2022/08/05 07:33:56;;;;;;;8.77;3.90;;;;;;;16.64;100.00;100827.50;4910997;29;20446;-84
2022/08/05 07:36:32;;;;;;;7.13;3.70;;;;;;;16.68;100.00;100838.66;4920337;29;20508;-84
2022/08/05 07:39:09;;;;;;;7.10;3.70;;;;;;;16.82;100.00;100831.13;4918755;29;21111;-84
2022/08/05 07:41:37;;;;;;;7.55;3.60;;;;;;;17.07;100.00;100815.06;4922652;29;20443;-87
2022/08/05 07:44:12;;;;;;;8.38;3.72;;;;;;;17.22;100.00;100832.22;4903766;29;20430;-85
2022/08/05 07:46:40;;;;;;;7.97;3.70;;;;;;;17.29;100.00;100827.03;4903506;29;20439;-83
2022/08/05 07:49:09;;;;;;;7.80;3.80;;;;;;;17.25;100.00;100829.66;4927727;29;20789;-85
2022/08/05 07:51:40;;;;;;;8.25;4.00;;;;;;;17.04;100.00;100825.88;4925282;29;20441;-84
2022/08/05 07:54:09;;;;;;;8.88;3.85;;;;;;;16.94;100.00;100835.22;4906614;29;20443;-83
2022/08/05 07:56:43;;;;;;;8.60;4.00;;;;;;;16.92;100.00;100821.81;4921435;29;20443;-83
2022/08/05 07:59:13;;;;;;;9.00;4.07;;;;;;;16.65;100.00;100798.09;4907337;29;20439;-85
2022/08/05 08:01:42;;;;;;;8.80;4.00;;;;;;;16.82;100.00;100816.56;4909605;29;20442;-81
2022/08/05 08:04:15;;;;;;;11.30;4.00;;;;;;;16.66;100.00;100789.53;4928860;29;20458;-83
2022/08/05 08:06:44;;;;;;;7.68;3.83;;;;;;;16.75;100.00;100817.06;4925990;29;20438;-83
2022/08/05 08:09:15;;;;;;;10.48;3.95;;;;;;;16.71;100.00;100812.50;4910295;29;20431;-83
2022/08/05 08:11:48;;;;;;;9.25;3.65;;;;;;;16.65;100.00;100817.31;4862135;29;20435;-82
2022/08/05 08:14:18;;;;;;;8.63;3.70;;;;;;;16.60;100.00;100820.19;4911796;29;20439;-85
2022/08/05 08:16:51;;;;;;;7.00;3.65;;;;;;;16.57;100.00;100818.94;4929177;29;20451;-84
2022/08/05 08:19:25;;;;;;;9.13;3.80;;;;;;;16.74;100.00;100833.88;4926986;29;20438;-82
2022/08/05 08:21:57;;;;;;;5.53;3.30;;;;;;;16.63;100.00;100822.34;4930299;29;20415;-83
2022/08/05 08:24:25;;;;;;;8.40;3.70;;;;;;;16.61;100.00;100843.81;4929596;29;20423;-83
2022/08/05 08:27:01;;;;;;;6.82;3.70;;;;;;;16.64;100.00;100855.00;4930291;29;20788;-85
2022/08/05 08:29:35;;;;;;;7.93;3.90;;;;;;;16.55;100.00;100847.84;4930455;29;20432;-85
2022/08/05 08:32:10;;;;;;;9.80;3.58;;;;;;;16.60;100.00;100850.44;4911782;29;20440;-84
2022/08/05 08:34:40;;;;;;;8.30;3.80;;;;;;;16.47;100.00;100842.00;4928754;29;20911;-83
2022/08/05 08:37:12;;;;;;;8.15;3.65;;;;;;;16.59;100.00;100860.63;4929478;29;20793;-82
2022/08/05 08:39:48;;;;;;;9.90;3.70;;;;;;;16.69;100.00;100880.72;4913153;29;20432;-83
2022/08/05 08:42:17;;;;;;;9.00;3.80;;;;;;;16.68;100.00;100879.88;4920584;29;20439;-82
2022/08/05 08:44:54;;;;;;;9.48;3.80;;;;;;;16.62;100.00;100887.44;4905119;29;20455;-83
2022/08/05 08:47:24;;;;;;;7.80;3.83;;;;;;;16.66;100.00;100890.41;4909442;29;20431;-85
2022/08/05 08:49:54;;;;;;;8.65;4.05;;;;;;;16.72;100.00;100882.81;4920043;29;20435;-85
2022/08/05 08:52:25;;;;;;;8.23;3.83;;;;;;;16.62;100.00;100873.72;4907030;29;20427;-82
2022/08/05 08:54:55;;;;;;;8.90;3.70;;;;;;;16.62;100.00;100873.72;4896384;29;20803;-81
2022/08/05 08:57:28;;;;;;;7.25;3.58;;;;;;;16.75;100.00;100884.94;4900050;29;21110;-86
2022/08/05 09:00:01;;;;;;;7.43;3.92;;;;;;;16.70;100.00;100887.84;4896813;29;20435;-88
2022/08/05 09:02:34;;;;;;;7.70;4.25;;;;;;;16.81;100.00;100892.72;4912569;29;20443;-83
2022/08/05 09:05:10;;;;;;;9.13;4.05;;;;;;;16.85;100.00;100892.91;4910695;29;20427;-86
2022/08/05 09:07:46;;;;;;;8.32;4.07;;;;;;;16.87;100.00;100887.09;4901760;29;20443;-86
2022/08/05 09:10:19;;;;;;;7.05;3.55;;;;;;;16.68;100.00;100874.38;4912698;29;20444;-85
2022/08/05 09:12:48;;;;;;;8.20;4.00;;;;;;;16.71;100.00;100859.22;4892643;29;20458;-88
2022/08/05 09:15:22;;;;;;;8.25;4.28;;;;;;;16.69;100.00;100864.22;4896772;29;20447;-85
2022/08/05 09:17:55;;;;;;;7.88;3.90;;;;;;;16.57;100.00;100875.78;4909041;29;20446;-84
2022/08/05 09:20:28;;;;;;;7.20;3.75;;;;;;;16.67;100.00;100873.59;4913456;29;20448;-85
2022/08/05 09:23:07;;;;;;;9.20;4.30;;;;;;;16.72;100.00;100878.13;4899514;29;20451;-85
2022/08/05 09:25:42;;;;;;;8.13;4.00;;;;;;;16.83;100.00;100882.22;4889527;29;20447;-86
2022/08/05 09:28:16;;;;;;;10.27;4.03;;;;;;;16.75;100.00;100885.75;4895241;29;20452;-83
2022/08/05 09:30:54;;;;;;;7.30;4.10;;;;;;;16.79;100.00;100892.25;4906873;29;20516;-82
2022/08/05 09:33:27;;;;;;;9.10;4.35;;;;;;;16.79;100.00;100885.91;4904941;29;20451;-86
2022/08/05 09:36:02;;;;;;;8.32;4.13;;;;;;;16.74;100.00;100884.13;4914361;29;20444;-83
2022/08/05 09:38:32;;;;;;;6.72;3.95;;;;;;;16.80;100.00;100890.28;4903382;29;20446;-83
2022/08/05 09:41:07;;;;;;;7.47;4.10;;;;;;;16.83;100.00;100890.47;4911168;29;20447;-83
2022/08/05 09:43:40;;;;;;;7.60;4.00;;;;;;;16.78;100.00;100895.31;4896533;29;20788;-82
2022/08/05 09:46:25;;;;;;;8.35;4.10;;;;;;;16.91;100.00;100912.84;4890881;29;20480;-82
2022/08/05 09:48:54;;;;;;;8.37;4.30;;;;;;;16.87;100.00;100912.63;4894752;29;20446;-84
2022/08/05 09:51:32;;;;;;;8.90;4.60;;;;;;;16.78;100.00;100903.56;4897280;29;20451;-82
2022/08/05 09:54:08;;;;;;;8.18;4.60;;;;;;;16.79;100.00;100899.66;4917636;29;20443;-84
2022/08/05 09:56:37;;;;;;;9.88;5.07;;;;;;;16.87;100.00;100881.59;4916831;29;20445;-85
2022/08/05 09:59:07;;;;;;;11.02;5.25;;;;;;;16.88;100.00;100881.28;4916492;29;20448;-84
2022/08/05 10:01:42;;;;;;;8.80;4.70;;;;;;;16.88;100.00;100889.53;4910767;29;20439;-87
2022/08/05 10:04:16;;;;;;;8.20;4.73;;;;;;;16.95;100.00;100884.41;4920379;29;20435;-86
2022/08/05 10:06:55;;;;;;;8.18;4.35;;;;;;;16.93;100.00;100878.41;4910003;29;20447;-83
2022/08/05 10:09:30;;;;;;;7.00;4.30;;;;;;;16.94;100.00;100874.50;4897871;29;20448;-88
2022/08/05 10:12:13;;;;;;;7.90;4.63;;;;;;;16.84;100.00;100881.09;4918588;29;20537;-89
2022/08/05 10:14:41;;;;;;;9.10;4.53;;;;;;;16.82;100.00;100877.03;4894170;29;20435;-90
2022/08/05 10:17:13;;;;;;;7.30;4.40;;;;;;;16.87;100.00;100878.84;4917978;29;20447;-90
2022/08/05 10:19:46;;;;;;;7.45;4.32;;;;;;;16.75;100.00;100871.19;4903274;29;20442;-86
2022/08/05 10:22:15;;;;;;;8.40;4.03;;;;;;;16.82;100.00;100872.34;4914415;29;20443;-86
2022/08/05 10:24:44;;;;;;;6.88;4.00;;;;;;;16.96;100.00;100877.78;4896844;29;21014;-85
2022/08/05 10:27:18;;;;;;;8.10;4.50;;;;;;;17.03;100.00;100896.56;4892629;29;20474;-86
2022/08/05 10:29:51;;;;;;;8.32;4.20;;;;;;;17.02;100.00;100902.38;4909922;29;20439;-86
2022/08/05 10:32:19;;;;;;;8.13;4.47;;;;;;;16.93;100.00;100897.66;4892276;29;20447;-85
2022/08/05 10:34:54;;;;;;;7.90;4.18;;;;;;;16.79;100.00;100884.00;4914872;29;20438;-85
2022/08/05 10:37:29;;;;;;;7.43;4.00;;;;;;;16.85;100.00;100887.41;4894952;29;20446;-84
2022/08/05 10:40:07;;;;;;;6.85;4.30;;;;;;;17.02;100.00;100889.44;4915252;29;20800;-85
2022/08/05 10:42:46;;;;;;;9.45;4.50;;;;;;;16.96;100.00;100897.00;4897262;29;20447;-85
2022/08/05 10:45:25;;;;;;;8.48;4.40;;;;;;;17.04;100.00;100897.34;4908148;29;20443;-85
2022/08/05 10:48:29;;;;;;;7.68;4.40;;;;;;;17.12;100.00;100911.16;4894361;29;21146;-84
2022/08/05 10:51:06;;;;;;;7.85;4.20;;;;;;;17.02;100.00;100905.94;4910249;29;20443;-84
2022/08/05 10:53:42;;;;;;;7.57;4.03;;;;;;;17.02;100.00;100905.94;4908160;29;20439;-86
2022/08/05 10:56:18;;;;;;;7.15;4.05;;;;;;;17.08;100.00;100903.84;4909653;29;20451;-84
2022/08/05 10:59:05;;;;;;;8.95;4.43;;;;;;;17.05;100.00;100912.72;4907041;29;20446;-85
2022/08/05 11:01:41;;;;;;;7.35;4.28;;;;;;;17.06;100.00;100922.63;4895232;29;20528;-85
2022/08/05 11:04:16;;;;;;;9.63;4.30;;;;;;;17.04;100.00;100925.69;4907035;29;20951;-85
2022/08/05 11:07:17;;;;;;;7.40;4.07;;;;;;;16.79;100.00;100925.22;4907823;29;20451;-85
2022/08/05 11:09:52;;;;;;;7.47;3.67;;;;;;;16.73;100.00;100926.47;4878795;29;20440;-85
2022/08/05 11:12:44;;;;;;;5.70;3.50;;;;;;;16.76;100.00;100927.78;4891517;29;21022;-86
2022/08/05 11:15:20;;;;;;;6.85;3.67;;;;;;;16.80;100.00;100939.75;4912353;29;20641;-86
2022/08/05 11:17:55;;;;;;;5.35;3.17;;;;;;;16.87;100.00;100953.06;4897611;29;20435;-85
2022/08/05 11:20:37;;;;;;;6.38;3.55;;;;;;;16.78;100.00;100944.78;4914662;29;20447;-85
2022/08/05 11:23:32;;;;;;;5.13;2.92;;;;;;;16.84;100.00;100949.00;4909900;29;20443;-86
2022/08/05 11:26:08;;;;;;;4.97;2.92;;;;;;;16.85;100.00;100945.13;4890284;29;20443;-84
2022/08/05 11:28:44;;;;;;;5.03;3.00;;;;;;;16.71;100.00;100945.22;4905061;29;20440;-85
2022/08/05 11:31:30;;;;;;;4.82;2.97;;;;;;;16.53;100.00;100955.31;4891593;29;20444;-85
2022/08/05 11:34:08;;;;;;;8.52;3.20;;;;;;;16.69;100.00;100955.69;4896818;29;20446;-84
2022/08/05 11:36:49;;;;;;;5.83;3.10;;;;;;;16.64;100.00;100970.41;4907907;29;20428;-85
2022/08/05 11:39:49;;;;;;;5.38;2.85;;;;;;;16.63;100.00;100982.50;4907165;29;20443;-84
2022/08/05 11:42:24;;;;;;;5.57;2.60;;;;;;;16.61;100.00;100982.03;4909441;29;20443;-84
2022/08/05 11:45:04;;;;;;;5.18;2.90;;;;;;;16.57;100.00;100996.69;4913061;29;20439;-84
2022/08/05 11:47:38;;;;;;;5.22;2.97;;;;;;;16.61;100.00;101003.16;4893005;29;20439;-83
2022/08/05 11:50:11;;;;;;;5.20;2.67;;;;;;;16.53;100.00;101001.19;4909946;29;20441;-84